sensor_id;sensor_type;location;lat;lon;timestamp;pressure;altitude;pressure_sealevel;temperature
24714;BMP280;12820;51.580;5.010;2022-09-27T00:00:48;99756.28;;;13.41
24714;BMP280;12820;51.580;5.010;2022-09-27T00:06:13;99760.56;;;13.39
24714;BMP280;12820;51.580;5.010;2022-09-27T00:16:32;99775.91;;;13.34
24714;BMP280;12820;51.580;5.010;2022-09-27T00:21:34;99777.75;;;13.31
24714;BMP280;12820;51.580;5.010;2022-09-27T00:26:36;99793.91;;;13.27
24714;BMP280;12820;51.580;5.010;2022-09-27T00:31:39;99803.22;;;13.25
24714;BMP280;12820;51.580;5.010;2022-09-27T00:36:41;99780.66;;;13.22
24714;BMP280;12820;51.580;5.010;2022-09-27T00:41:43;99766.53;;;13.18
24714;BMP280;12820;51.580;5.010;2022-09-27T00:52:03;99775.16;;;13.13
24714;BMP280;12820;51.580;5.010;2022-09-27T00:57:07;99784.47;;;13.11
24714;BMP280;12820;51.580;5.010;2022-09-27T01:02:10;99794.63;;;13.10
24714;BMP280;12820;51.580;5.010;2022-09-27T01:07:12;99790.47;;;13.09
24714;BMP280;12820;51.580;5.010;2022-09-27T01:17:50;99785.78;;;13.00
24714;BMP280;12820;51.580;5.010;2022-09-27T01:23:33;99805.31;;;12.95
24714;BMP280;12820;51.580;5.010;2022-09-27T01:28:54;99813.13;;;12.89
24714;BMP280;12820;51.580;5.010;2022-09-27T01:34:04;99812.53;;;12.83
24714;BMP280;12820;51.580;5.010;2022-09-27T01:39:35;99803.66;;;12.75
24714;BMP280;12820;51.580;5.010;2022-09-27T01:45:06;99856.75;;;12.70
24714;BMP280;12820;51.580;5.010;2022-09-27T01:50:26;99822.63;;;12.62
24714;BMP280;12820;51.580;5.010;2022-09-27T01:55:32;99798.59;;;12.52
24714;BMP280;12820;51.580;5.010;2022-09-27T02:00:56;99816.38;;;12.49
24714;BMP280;12820;51.580;5.010;2022-09-27T02:06:09;99824.91;;;12.45
24714;BMP280;12820;51.580;5.010;2022-09-27T02:11:44;99841.78;;;12.43
24714;BMP280;12820;51.580;5.010;2022-09-27T02:16:58;99836.75;;;12.43
24714;BMP280;12820;51.580;5.010;2022-09-27T02:22:08;99804.75;;;12.45
24714;BMP280;12820;51.580;5.010;2022-09-27T02:27:20;99799.91;;;12.41
24714;BMP280;12820;51.580;5.010;2022-09-27T02:32:25;99823.41;;;12.42
24714;BMP280;12820;51.580;5.010;2022-09-27T02:37:28;99820.88;;;12.42
24714;BMP280;12820;51.580;5.010;2022-09-27T02:42:31;99825.03;;;12.43
24714;BMP280;12820;51.580;5.010;2022-09-27T02:58:54;99808.28;;;12.42
24714;BMP280;12820;51.580;5.010;2022-09-27T03:04:36;99792.44;;;12.38
24714;BMP280;12820;51.580;5.010;2022-09-27T03:09:43;99803.47;;;12.36
24714;BMP280;12820;51.580;5.010;2022-09-27T03:14:47;99825.31;;;12.35
24714;BMP280;12820;51.580;5.010;2022-09-27T03:20:22;99827.00;;;12.35
24714;BMP280;12820;51.580;5.010;2022-09-27T03:25:38;99835.44;;;12.34
24714;BMP280;12820;51.580;5.010;2022-09-27T03:30:44;99835.44;;;12.34
24714;BMP280;12820;51.580;5.010;2022-09-27T03:35:50;99865.66;;;12.34
24714;BMP280;12820;51.580;5.010;2022-09-27T03:40:53;99860.63;;;12.34
24714;BMP280;12820;51.580;5.010;2022-09-27T03:45:55;99870.72;;;12.34
24714;BMP280;12820;51.580;5.010;2022-09-27T03:50:57;99877.50;;;12.32
24714;BMP280;12820;51.580;5.010;2022-09-27T03:55:59;99863.31;;;12.29
24714;BMP280;12820;51.580;5.010;2022-09-27T04:01:05;99836.47;;;12.28
24714;BMP280;12820;51.580;5.010;2022-09-27T04:06:09;99835.91;;;12.22
24714;BMP280;12820;51.580;5.010;2022-09-27T04:11:15;99825.13;;;12.19
24714;BMP280;12820;51.580;5.010;2022-09-27T04:16:20;99827.78;;;12.14
24714;BMP280;12820;51.580;5.010;2022-09-27T04:21:41;99833.47;;;12.19
24714;BMP280;12820;51.580;5.010;2022-09-27T04:26:45;99839.06;;;12.27
24714;BMP280;12820;51.580;5.010;2022-09-27T04:31:48;99841.03;;;12.19
24714;BMP280;12820;51.580;5.010;2022-09-27T04:37:19;99846.31;;;12.13
24714;BMP280;12820;51.580;5.010;2022-09-27T04:42:24;99854.03;;;12.09
24714;BMP280;12820;51.580;5.010;2022-09-27T04:47:29;99856.69;;;12.05
24714;BMP280;12820;51.580;5.010;2022-09-27T04:52:31;99850.94;;;12.01
24714;BMP280;12820;51.580;5.010;2022-09-27T04:57:34;99841.78;;;11.99
24714;BMP280;12820;51.580;5.010;2022-09-27T05:02:36;99854.44;;;11.97
24714;BMP280;12820;51.580;5.010;2022-09-27T05:08:07;99857.91;;;11.95
24714;BMP280;12820;51.580;5.010;2022-09-27T05:13:29;99863.78;;;11.94
24714;BMP280;12820;51.580;5.010;2022-09-27T05:18:31;99859.63;;;11.93
24714;BMP280;12820;51.580;5.010;2022-09-27T05:24:08;99856.31;;;11.91
24714;BMP280;12820;51.580;5.010;2022-09-27T05:29:11;99866.41;;;11.91
24714;BMP280;12820;51.580;5.010;2022-09-27T05:34:16;99870.69;;;11.89
24714;BMP280;12820;51.580;5.010;2022-09-27T05:39:31;99874.84;;;11.90
24714;BMP280;12820;51.580;5.010;2022-09-27T05:44:33;99876.53;;;11.90
24714;BMP280;12820;51.580;5.010;2022-09-27T05:49:36;99868.16;;;11.89
24714;BMP280;12820;51.580;5.010;2022-09-27T05:54:40;99870.69;;;11.89
24714;BMP280;12820;51.580;5.010;2022-09-27T05:59:43;99868.91;;;11.91
24714;BMP280;12820;51.580;5.010;2022-09-27T06:04:54;99887.38;;;11.91
24714;BMP280;12820;51.580;5.010;2022-09-27T06:10:16;99888.19;;;11.92
24714;BMP280;12820;51.580;5.010;2022-09-27T06:15:18;99883.94;;;11.94
24714;BMP280;12820;51.580;5.010;2022-09-27T06:20:20;99869.59;;;11.96
24714;BMP280;12820;51.580;5.010;2022-09-27T06:25:22;99858.47;;;12.01
24714;BMP280;12820;51.580;5.010;2022-09-27T06:30:42;99861.72;;;12.05
24714;BMP280;12820;51.580;5.010;2022-09-27T06:35:55;99859.84;;;12.09
24714;BMP280;12820;51.580;5.010;2022-09-27T06:41:00;99856.41;;;12.12
24714;BMP280;12820;51.580;5.010;2022-09-27T06:46:18;99868.84;;;12.16
24714;BMP280;12820;51.580;5.010;2022-09-27T06:51:32;99857.13;;;12.15
24714;BMP280;12820;51.580;5.010;2022-09-27T06:56:34;99879.69;;;12.18
24714;BMP280;12820;51.580;5.010;2022-09-27T07:01:36;99876.28;;;12.19
24714;BMP280;12820;51.580;5.010;2022-09-27T07:06:59;99877.94;;;12.20
24714;BMP280;12820;51.580;5.010;2022-09-27T07:12:05;99889.53;;;12.24
24714;BMP280;12820;51.580;5.010;2022-09-27T07:17:08;99891.09;;;12.28
24714;BMP280;12820;51.580;5.010;2022-09-27T07:22:14;99900.94;;;12.34
24714;BMP280;12820;51.580;5.010;2022-09-27T07:27:19;99904.13;;;12.39
24714;BMP280;12820;51.580;5.010;2022-09-27T07:32:23;99904.69;;;12.46
24714;BMP280;12820;51.580;5.010;2022-09-27T07:37:26;99902.56;;;12.57
24714;BMP280;12820;51.580;5.010;2022-09-27T07:42:29;99911.59;;;12.64
24714;BMP280;12820;51.580;5.010;2022-09-27T07:47:32;99909.09;;;12.64
24714;BMP280;12820;51.580;5.010;2022-09-27T07:52:55;99916.53;;;12.67
24714;BMP280;12820;51.580;5.010;2022-09-27T07:58:16;99910.44;;;12.72
24714;BMP280;12820;51.580;5.010;2022-09-27T08:03:18;99908.56;;;12.77
24714;BMP280;12820;51.580;5.010;2022-09-27T08:08:21;99901.56;;;12.85
24714;BMP280;12820;51.580;5.010;2022-09-27T08:13:25;99889.47;;;12.93
24714;BMP280;12820;51.580;5.010;2022-09-27T08:18:27;99892.69;;;12.96
24714;BMP280;12820;51.580;5.010;2022-09-27T08:23:34;99890.09;;;12.99
24714;BMP280;12820;51.580;5.010;2022-09-27T08:29:04;99899.69;;;13.11
24714;BMP280;12820;51.580;5.010;2022-09-27T08:34:11;99899.03;;;13.27
24714;BMP280;12820;51.580;5.010;2022-09-27T08:39:14;99903.41;;;13.43
24714;BMP280;12820;51.580;5.010;2022-09-27T08:44:30;99928.94;;;13.56
24714;BMP280;12820;51.580;5.010;2022-09-27T08:50:25;99925.97;;;13.67
24714;BMP280;12820;51.580;5.010;2022-09-27T08:55:58;99941.94;;;13.67
24714;BMP280;12820;51.580;5.010;2022-09-27T09:01:05;99945.34;;;13.66
24714;BMP280;12820;51.580;5.010;2022-09-27T09:07:19;99937.78;;;13.66
24714;BMP280;12820;51.580;5.010;2022-09-27T09:28:44;99978.34;;;13.62
24714;BMP280;12820;51.580;5.010;2022-09-27T09:33:56;99984.50;;;13.56
24714;BMP280;12820;51.580;5.010;2022-09-27T09:39:04;99985.47;;;13.52
24714;BMP280;12820;51.580;5.010;2022-09-27T09:44:51;99978.91;;;13.49
24714;BMP280;12820;51.580;5.010;2022-09-27T09:50:01;99983.28;;;13.44
24714;BMP280;12820;51.580;5.010;2022-09-27T09:55:22;99970.81;;;13.41
24714;BMP280;12820;51.580;5.010;2022-09-27T10:00:25;99966.78;;;13.37
24714;BMP280;12820;51.580;5.010;2022-09-27T10:05:27;99969.28;;;13.37
24714;BMP280;12820;51.580;5.010;2022-09-27T10:10:35;99972.56;;;13.39
24714;BMP280;12820;51.580;5.010;2022-09-27T10:15:52;99969.84;;;13.43
24714;BMP280;12820;51.580;5.010;2022-09-27T10:20:58;99970.81;;;13.41
24714;BMP280;12820;51.580;5.010;2022-09-27T10:26:06;99964.13;;;13.40
24714;BMP280;12820;51.580;5.010;2022-09-27T10:31:17;99966.50;;;13.43
24714;BMP280;12820;51.580;5.010;2022-09-27T10:36:34;99965.75;;;13.41
24714;BMP280;12820;51.580;5.010;2022-09-27T10:41:39;99968.28;;;13.41
24714;BMP280;12820;51.580;5.010;2022-09-27T10:46:47;99957.06;;;13.48
24714;BMP280;12820;51.580;5.010;2022-09-27T10:52:09;99944.09;;;13.56
24714;BMP280;12820;51.580;5.010;2022-09-27T10:57:18;99939.81;;;13.78
24714;BMP280;12820;51.580;5.010;2022-09-27T11:02:31;99935.44;;;14.22
24714;BMP280;12820;51.580;5.010;2022-09-27T11:07:55;99924.84;;;14.69
24714;BMP280;12820;51.580;5.010;2022-09-27T11:13:17;99922.06;;;15.11
24714;BMP280;12820;51.580;5.010;2022-09-27T11:34:48;99919.38;;;16.46
24714;BMP280;12820;51.580;5.010;2022-09-27T11:40:11;99918.50;;;16.94
24714;BMP280;12820;51.580;5.010;2022-09-27T11:45:37;99918.47;;;17.39
24714;BMP280;12820;51.580;5.010;2022-09-27T11:57:06;99911.25;;;18.18
24714;BMP280;12820;51.580;5.010;2022-09-27T12:07:30;99889.91;;;18.61
24714;BMP280;12820;51.580;5.010;2022-09-27T12:12:39;99884.47;;;18.67
24714;BMP280;12820;51.580;5.010;2022-09-27T12:17:45;99891.91;;;18.56
24714;BMP280;12820;51.580;5.010;2022-09-27T12:23:02;99875.75;;;18.57
24714;BMP280;12820;51.580;5.010;2022-09-27T12:28:50;99870.84;;;18.82
24714;BMP280;12820;51.580;5.010;2022-09-27T12:39:46;99870.28;;;18.77
24714;BMP280;12820;51.580;5.010;2022-09-27T12:44:58;99858.56;;;18.61
24714;BMP280;12820;51.580;5.010;2022-09-27T12:50:16;99861.03;;;18.49
24714;BMP280;12820;51.580;5.010;2022-09-27T13:01:14;99837.41;;;18.47
24714;BMP280;12820;51.580;5.010;2022-09-27T13:06:21;99829.38;;;19.05
24714;BMP280;12820;51.580;5.010;2022-09-27T13:11:46;99817.50;;;20.76
24714;BMP280;12820;51.580;5.010;2022-09-27T13:16:53;99809.19;;;21.08
24714;BMP280;12820;51.580;5.010;2022-09-27T13:21:57;99812.22;;;21.25
24714;BMP280;12820;51.580;5.010;2022-09-27T13:27:39;99814.69;;;21.37
24714;BMP280;12820;51.580;5.010;2022-09-27T13:38:21;99864.94;;;20.07
24714;BMP280;12820;51.580;5.010;2022-09-27T13:44:05;99838.47;;;19.21
24714;BMP280;12820;51.580;5.010;2022-09-27T13:49:20;99843.22;;;18.49
24714;BMP280;12820;51.580;5.010;2022-09-27T13:54:58;99840.25;;;18.15
24714;BMP280;12820;51.580;5.010;2022-09-27T14:00:09;99834.88;;;17.92
24714;BMP280;12820;51.580;5.010;2022-09-27T14:05:37;99832.81;;;17.70
24714;BMP280;12820;51.580;5.010;2022-09-27T14:10:42;99830.13;;;17.44
24714;BMP280;12820;51.580;5.010;2022-09-27T14:15:45;99815.13;;;17.26
24714;BMP280;12820;51.580;5.010;2022-09-27T14:20:51;99822.09;;;17.07
24714;BMP280;12820;51.580;5.010;2022-09-27T14:26:25;99826.78;;;17.00
24714;BMP280;12820;51.580;5.010;2022-09-27T14:31:28;99823.53;;;16.98
24714;BMP280;12820;51.580;5.010;2022-09-27T14:36:47;99828.13;;;16.91
24714;BMP280;12820;51.580;5.010;2022-09-27T14:42:19;99829.25;;;16.71
24714;BMP280;12820;51.580;5.010;2022-09-27T14:47:24;99824.75;;;16.61
24714;BMP280;12820;51.580;5.010;2022-09-27T14:52:30;99825.41;;;16.49
24714;BMP280;12820;51.580;5.010;2022-09-27T14:57:34;99840.19;;;16.26
24714;BMP280;12820;51.580;5.010;2022-09-27T15:02:39;99842.56;;;15.98
24714;BMP280;12820;51.580;5.010;2022-09-27T15:07:44;99832.00;;;15.73
24714;BMP280;12820;51.580;5.010;2022-09-27T15:12:50;99830.59;;;15.51
24714;BMP280;12820;51.580;5.010;2022-09-27T15:17:55;99823.00;;;15.35
24714;BMP280;12820;51.580;5.010;2022-09-27T15:22:58;99824.56;;;15.21
24714;BMP280;12820;51.580;5.010;2022-09-27T15:28:19;99836.44;;;15.02
24714;BMP280;12820;51.580;5.010;2022-09-27T15:33:28;99823.88;;;14.83
24714;BMP280;12820;51.580;5.010;2022-09-27T15:38:38;99829.03;;;14.63
24714;BMP280;12820;51.580;5.010;2022-09-27T15:43:47;99813.72;;;14.48
24714;BMP280;12820;51.580;5.010;2022-09-27T15:49:27;99806.63;;;14.38
24714;BMP280;12820;51.580;5.010;2022-09-27T15:54:34;99809.22;;;14.37
24714;BMP280;12820;51.580;5.010;2022-09-27T15:59:37;99792.47;;;14.34
24714;BMP280;12820;51.580;5.010;2022-09-27T16:04:39;99787.69;;;14.28
24714;BMP280;12820;51.580;5.010;2022-09-27T16:09:41;99782.16;;;14.21
24714;BMP280;12820;51.580;5.010;2022-09-27T16:14:45;99772.34;;;14.15
24714;BMP280;12820;51.580;5.010;2022-09-27T16:19:47;99775.88;;;14.11
24714;BMP280;12820;51.580;5.010;2022-09-27T16:24:49;99789.53;;;14.07
24714;BMP280;12820;51.580;5.010;2022-09-27T16:29:53;99788.16;;;14.00
24714;BMP280;12820;51.580;5.010;2022-09-27T16:34:57;99774.09;;;13.95
24714;BMP280;12820;51.580;5.010;2022-09-27T16:39:59;99790.34;;;13.89
24714;BMP280;12820;51.580;5.010;2022-09-27T16:45:02;99783.78;;;13.86
24714;BMP280;12820;51.580;5.010;2022-09-27T16:50:12;99763.81;;;13.80
24714;BMP280;12820;51.580;5.010;2022-09-27T16:55:35;99769.13;;;13.74
24714;BMP280;12820;51.580;5.010;2022-09-27T17:00:37;99756.75;;;13.68
24714;BMP280;12820;51.580;5.010;2022-09-27T17:05:41;99759.53;;;13.62
24714;BMP280;12820;51.580;5.010;2022-09-27T17:10:43;99768.13;;;13.58
24714;BMP280;12820;51.580;5.010;2022-09-27T17:15:46;99770.03;;;13.53
24714;BMP280;12820;51.580;5.010;2022-09-27T17:20:48;99755.03;;;13.50
24714;BMP280;12820;51.580;5.010;2022-09-27T17:25:50;99744.31;;;13.46
24714;BMP280;12820;51.580;5.010;2022-09-27T17:31:01;99734.47;;;13.40
24714;BMP280;12820;51.580;5.010;2022-09-27T17:36:03;99724.56;;;13.35
24714;BMP280;12820;51.580;5.010;2022-09-27T17:41:09;99720.53;;;13.32
24714;BMP280;12820;51.580;5.010;2022-09-27T17:46:12;99722.34;;;13.28
24714;BMP280;12820;51.580;5.010;2022-09-27T17:51:14;99721.66;;;13.25
24714;BMP280;12820;51.580;5.010;2022-09-27T17:56:16;99731.91;;;13.22
24714;BMP280;12820;51.580;5.010;2022-09-27T18:01:20;99721.91;;;13.19
24714;BMP280;12820;51.580;5.010;2022-09-27T18:06:22;99738.00;;;13.16
24714;BMP280;12820;51.580;5.010;2022-09-27T18:11:25;99744.06;;;13.13
24714;BMP280;12820;51.580;5.010;2022-09-27T18:16:33;99746.84;;;13.07
24714;BMP280;12820;51.580;5.010;2022-09-27T18:21:38;99750.38;;;13.03
24714;BMP280;12820;51.580;5.010;2022-09-27T18:26:41;99733.72;;;12.99
24714;BMP280;12820;51.580;5.010;2022-09-27T18:31:44;99725.53;;;12.94
24714;BMP280;12820;51.580;5.010;2022-09-27T18:36:50;99721.47;;;12.90
24714;BMP280;12820;51.580;5.010;2022-09-27T18:41:52;99714.03;;;12.87
24714;BMP280;12820;51.580;5.010;2022-09-27T18:46:56;99709.13;;;12.84
24714;BMP280;12820;51.580;5.010;2022-09-27T18:52:00;99715.09;;;12.82
24714;BMP280;12820;51.580;5.010;2022-09-27T18:57:03;99700.97;;;12.78
24714;BMP280;12820;51.580;5.010;2022-09-27T19:02:05;99701.16;;;12.74
24714;BMP280;12820;51.580;5.010;2022-09-27T19:07:07;99707.06;;;12.73
24714;BMP280;12820;51.580;5.010;2022-09-27T19:12:09;99709.72;;;12.70
24714;BMP280;12820;51.580;5.010;2022-09-27T19:17:11;99722.44;;;12.67
24714;BMP280;12820;51.580;5.010;2022-09-27T19:22:13;99725.03;;;12.65
24714;BMP280;12820;51.580;5.010;2022-09-27T19:27:15;99727.56;;;12.65
24714;BMP280;12820;51.580;5.010;2022-09-27T19:32:17;99732.66;;;12.64
24714;BMP280;12820;51.580;5.010;2022-09-27T19:37:19;99737.75;;;12.62
24714;BMP280;12820;51.580;5.010;2022-09-27T19:42:22;99740.34;;;12.61
24714;BMP280;12820;51.580;5.010;2022-09-27T19:47:24;99745.38;;;12.61
24714;BMP280;12820;51.580;5.010;2022-09-27T19:52:26;99753.78;;;12.60
24714;BMP280;12820;51.580;5.010;2022-09-27T19:57:28;99758.00;;;12.60
24714;BMP280;12820;51.580;5.010;2022-09-27T20:02:30;99762.22;;;12.59
24714;BMP280;12820;51.580;5.010;2022-09-27T20:07:32;99758.94;;;12.57
24714;BMP280;12820;51.580;5.010;2022-09-27T20:12:35;99752.38;;;12.53
24714;BMP280;12820;51.580;5.010;2022-09-27T20:17:37;99711.34;;;12.50
24714;BMP280;12820;51.580;5.010;2022-09-27T20:22:40;99706.44;;;12.47
24714;BMP280;12820;51.580;5.010;2022-09-27T20:27:42;99687.34;;;12.42
24714;BMP280;12820;51.580;5.010;2022-09-27T20:32:44;99680.78;;;12.38
24714;BMP280;12820;51.580;5.010;2022-09-27T20:38:06;99660.78;;;12.33
24714;BMP280;12820;51.580;5.010;2022-09-27T20:43:08;99659.22;;;12.31
24714;BMP280;12820;51.580;5.010;2022-09-27T20:48:10;99657.69;;;12.27
24714;BMP280;12820;51.580;5.010;2022-09-27T20:53:12;99661.16;;;12.25
24714;BMP280;12820;51.580;5.010;2022-09-27T20:58:14;99673.91;;;12.20
24714;BMP280;12820;51.580;5.010;2022-09-27T21:03:17;99670.84;;;12.14
24714;BMP280;12820;51.580;5.010;2022-09-27T21:08:23;99674.41;;;12.08
24714;BMP280;12820;51.580;5.010;2022-09-27T21:13:25;99674.63;;;12.03
24714;BMP280;12820;51.580;5.010;2022-09-27T21:18:27;99668.94;;;11.98
24714;BMP280;12820;51.580;5.010;2022-09-27T21:23:31;99675.72;;;11.96
24714;BMP280;12820;51.580;5.010;2022-09-27T21:28:37;99692.59;;;11.94
24714;BMP280;12820;51.580;5.010;2022-09-27T21:33:40;99697.69;;;11.92
24714;BMP280;12820;51.580;5.010;2022-09-27T21:38:42;99689.22;;;11.95
24714;BMP280;12820;51.580;5.010;2022-09-27T21:43:45;99677.41;;;11.95
24714;BMP280;12820;51.580;5.010;2022-09-27T21:48:50;99675.72;;;11.96
24714;BMP280;12820;51.580;5.010;2022-09-27T21:53:55;99685.88;;;11.94
24714;BMP280;12820;51.580;5.010;2022-09-27T21:58:58;99678.38;;;11.93
24714;BMP280;12820;51.580;5.010;2022-09-27T22:04:02;99675.97;;;11.90
24714;BMP280;12820;51.580;5.010;2022-09-27T22:09:06;99684.41;;;11.89
24714;BMP280;12820;51.580;5.010;2022-09-27T22:14:10;99672.84;;;11.84
24714;BMP280;12820;51.580;5.010;2022-09-27T22:19:13;99667.03;;;11.82
24714;BMP280;12820;51.580;5.010;2022-09-27T22:24:16;99671.38;;;11.78
24714;BMP280;12820;51.580;5.010;2022-09-27T22:29:19;99674.88;;;11.74
24714;BMP280;12820;51.580;5.010;2022-09-27T22:34:23;99663.28;;;11.71
24714;BMP280;12820;51.580;5.010;2022-09-27T22:39:32;99660.03;;;11.67
24714;BMP280;12820;51.580;5.010;2022-09-27T22:44:34;99651.75;;;11.65
24714;BMP280;12820;51.580;5.010;2022-09-27T22:49:36;99654.34;;;11.62
24714;BMP280;12820;51.580;5.010;2022-09-27T22:54:38;99654.44;;;11.61
24714;BMP280;12820;51.580;5.010;2022-09-27T22:59:40;99650.31;;;11.58
24714;BMP280;12820;51.580;5.010;2022-09-27T23:04:42;99642.19;;;11.52
24714;BMP280;12820;51.580;5.010;2022-09-27T23:09:45;99638.19;;;11.47
24714;BMP280;12820;51.580;5.010;2022-09-27T23:14:47;99652.56;;;11.43
24714;BMP280;12820;51.580;5.010;2022-09-27T23:19:49;99646.00;;;11.39
24714;BMP280;12820;51.580;5.010;2022-09-27T23:24:51;99648.63;;;11.37
24714;BMP280;12820;51.580;5.010;2022-09-27T23:29:53;99661.31;;;11.34
24714;BMP280;12820;51.580;5.010;2022-09-27T23:34:55;99669.63;;;11.36
24714;BMP280;12820;51.580;5.010;2022-09-27T23:39:57;99669.50;;;11.38
24714;BMP280;12820;51.580;5.010;2022-09-27T23:44:59;99667.78;;;11.40
24714;BMP280;12820;51.580;5.010;2022-09-27T23:50:02;99649.25;;;11.43
24714;BMP280;12820;51.580;5.010;2022-09-27T23:55:04;99640.75;;;11.45
